Time;durP1;ratioP1;P1;durP2;ratioP2;P2;SDS_P1;SDS_P2;PMS_P1;PMS_P2;Temp;Humidity;BMP_temperature;BMP_pressure;BME280_temperature;BME280_humidity;BME280_pressure;Samples;Min_cycle;Max_cycle;Signal;HPM_P1;HPM_P2
2021/04/07 00:01:44;;;;;;;24.10;21.70;;;29.80;95.50;;;;;;5112384;28;21008;-49
2021/04/07 00:04:14;;;;;;;22.13;20.02;;;29.80;95.60;;;;;;5112236;28;20291;-48
2021/04/07 00:06:44;;;;;;;20.95;19.02;;;29.80;95.60;;;;;;5111599;28;20695;-48
2021/04/07 00:09:14;;;;;;;20.38;18.30;;;29.90;95.70;;;;;;5112802;28;20298;-51
2021/04/07 00:11:46;;;;;;;20.38;18.25;;;29.90;95.80;;;;;;5112423;28;20636;-49
2021/04/07 00:14:16;;;;;;;20.63;18.80;;;29.90;96.00;;;;;;5112400;28;20192;-48
2021/04/07 00:16:49;;;;;;;21.15;19.05;;;30.00;96.00;;;;;;5110971;28;20253;-51
2021/04/07 00:19:20;;;;;;;20.67;18.63;;;30.00;96.10;;;;;;5099811;28;20223;-51
2021/04/07 00:21:50;;;;;;;19.67;17.80;;;30.10;96.00;;;;;;5112467;28;20203;-49
2021/04/07 00:24:20;;;;;;;20.42;18.55;;;30.10;96.00;;;;;;5112246;28;20241;-50
2021/04/07 00:26:51;;;;;;;19.58;17.67;;;30.10;96.00;;;;;;5110546;28;20249;-51
2021/04/07 00:29:22;;;;;;;20.55;18.52;;;30.10;96.10;;;;;;5111378;28;20220;-51
2021/04/07 00:31:52;;;;;;;25.98;17.73;;;30.20;96.10;;;;;;5111301;28;20257;-54
2021/04/07 00:34:22;;;;;;;19.13;17.35;;;30.20;96.10;;;;;;5111876;28;20204;-51
2021/04/07 00:36:53;;;;;;;19.17;17.23;;;30.20;96.10;;;;;;5111645;28;20230;-50
2021/04/07 00:39:23;;;;;;;19.98;18.02;;;30.30;96.10;;;;;;5110602;28;20670;-53
2021/04/07 00:41:54;;;;;;;19.73;17.58;;;30.30;96.20;;;;;;5098563;28;20240;-50
2021/04/07 00:44:24;;;;;;;15.77;14.18;;;30.40;96.20;;;;;;5111758;28;20257;-51
2021/04/07 00:46:54;;;;;;;16.98;14.63;;;30.40;96.00;;;;;;5111613;28;20311;-52
2021/04/07 00:49:25;;;;;;;15.52;13.93;;;30.50;95.70;;;;;;5110990;28;20650;-52
2021/04/07 00:51:56;;;;;;;20.65;17.17;;;30.50;95.60;;;;;;5110566;28;20294;-51
2021/04/07 00:54:26;;;;;;;17.17;14.25;;;30.60;95.30;;;;;;5111269;28;20319;-50
2021/04/07 00:56:57;;;;;;;16.40;14.48;;;30.60;95.20;;;;;;5111372;28;20550;-49
2021/04/07 00:59:28;;;;;;;16.83;15.10;;;30.60;95.20;;;;;;5111385;28;20208;-51
2021/04/07 01:01:58;;;;;;;19.65;17.65;;;30.70;95.20;;;;;;5110972;28;20670;-51
2021/04/07 01:04:29;;;;;;;20.25;18.15;;;30.70;94.90;;;;;;5098932;28;20192;-48
2021/04/07 01:06:59;;;;;;;19.70;17.67;;;30.80;94.80;;;;;;5111405;28;20954;-48
2021/04/07 01:09:30;;;;;;;24.00;21.63;;;30.80;94.80;;;;;;5111613;28;20284;-52
2021/04/07 01:12:01;;;;;;;25.40;22.80;;;30.80;94.80;;;;;;5110699;28;20216;-52
2021/04/07 01:14:32;;;;;;;29.42;26.02;;;30.90;94.70;;;;;;5110547;28;20201;-50
2021/04/07 01:17:02;;;;;;;25.17;22.60;;;30.90;94.50;;;;;;5110810;28;20320;-50
2021/04/07 01:19:32;;;;;;;27.88;23.17;;;30.90;94.50;;;;;;5111071;28;20218;-53
2021/04/07 01:22:03;;;;;;;25.92;23.15;;;31.00;94.60;;;;;;5111083;28;20242;-51
2021/04/07 01:24:34;;;;;;;28.98;26.10;;;31.00;94.40;;;;;;5110232;28;20310;-49
2021/04/07 01:27:04;;;;;;;28.55;25.52;;;31.00;94.20;;;;;;5110854;28;20283;-50
2021/04/07 01:29:35;;;;;;;26.33;23.60;;;31.00;94.30;;;;;;5110742;28;20599;-48
2021/04/07 01:32:06;;;;;;;27.10;23.90;;;31.10;94.10;;;;;;5110448;28;20227;-47
2021/04/07 01:34:36;;;;;;;27.27;23.95;;;31.10;94.00;;;;;;5109800;28;20204;-51
2021/04/07 01:37:07;;;;;;;25.63;23.13;;;31.20;94.10;;;;;;5087319;28;20221;-49
2021/04/07 01:39:38;;;;;;;24.52;20.95;;;31.20;94.10;;;;;;5046945;28;20261;-48
2021/04/07 01:42:08;;;;;;;23.70;20.95;;;31.20;94.00;;;;;;5046886;28;20202;-49
2021/04/07 01:44:39;;;;;;;23.10;20.70;;;31.20;93.80;;;;;;5046764;28;20736;-49
2021/04/07 01:47:09;;;;;;;22.23;18.63;;;31.30;93.70;;;;;;5046973;28;20692;-48
2021/04/07 01:49:40;;;;;;;23.98;20.42;;;31.30;93.60;;;;;;5047079;28;20202;-49
2021/04/07 01:52:10;;;;;;;21.35;19.02;;;31.30;93.40;;;;;;5046689;28;21690;-47
2021/04/07 01:54:42;;;;;;;20.92;17.88;;;31.40;93.40;;;;;;5047271;28;20238;-53
2021/04/07 01:57:16;;;;;;;25.02;22.30;;;31.50;93.50;;;;;;5046255;28;20682;-49
2021/04/07 01:59:46;;;;;;;24.30;21.98;;;31.40;93.40;;;;;;5033784;28;20222;-49
2021/04/07 02:02:16;;;;;;;24.45;21.75;;;31.50;93.30;;;;;;5077128;28;20740;-53
2021/04/07 02:04:47;;;;;;;22.92;20.40;;;31.60;93.40;;;;;;5086879;28;20220;-50
2021/04/07 02:07:18;;;;;;;22.55;20.10;;;31.60;93.20;;;;;;5086474;28;20660;-51
2021/04/07 02:09:50;;;;;;;22.75;20.17;;;31.60;92.90;;;;;;5090222;28;20678;-52
2021/04/07 02:12:23;;;;;;;23.40;19.42;;;31.70;92.80;;;;;;5110080;28;20195;-51
2021/04/07 02:14:55;;;;;;;19.45;17.38;;;31.70;92.80;;;;;;5109937;28;20211;-51
2021/04/07 02:17:26;;;;;;;18.70;16.70;;;31.70;92.70;;;;;;5109642;28;20195;-50
2021/04/07 02:19:56;;;;;;;18.77;16.77;;;31.70;92.80;;;;;;5109021;28;20218;-50
2021/04/07 02:22:27;;;;;;;18.88;16.88;;;31.80;92.80;;;;;;5109966;28;20208;-49
2021/04/07 02:24:58;;;;;;;20.42;18.40;;;31.90;92.70;;;;;;5109908;28;20204;-51
2021/04/07 02:27:28;;;;;;;21.15;17.17;;;31.90;92.40;;;;;;5109614;28;20204;-50
2021/04/07 02:29:59;;;;;;;19.15;17.15;;;31.90;92.30;;;;;;5108924;28;20192;-50
2021/04/07 02:32:30;;;;;;;20.88;18.50;;;32.00;92.20;;;;;;5109831;28;20591;-54
2021/04/07 02:35:00;;;;;;;20.13;18.13;;;32.10;92.10;;;;;;5109510;28;20274;-52
2021/04/07 02:37:30;;;;;;;19.50;17.60;;;32.10;92.10;;;;;;5109809;27;20208;-52
2021/04/07 02:40:02;;;;;;;19.73;17.52;;;32.10;92.20;;;;;;5108483;28;20216;-52
2021/04/07 02:42:32;;;;;;;21.30;19.02;;;32.20;92.10;;;;;;5108461;28;20315;-48
2021/04/07 02:45:03;;;;;;;21.55;18.10;;;32.30;91.60;;;;;;5107544;28;20204;-53
2021/04/07 02:47:34;;;;;;;18.60;16.83;;;32.40;91.20;;;;;;5098694;28;20229;-49
2021/04/07 02:50:05;;;;;;;19.92;18.00;;;32.50;90.80;;;;;;5101830;28;20227;-49
2021/04/07 02:52:36;;;;;;;19.48;17.35;;;32.50;90.20;;;;;;5102670;28;20292;-55
2021/04/07 02:55:08;;;;;;;20.17;18.20;;;32.60;90.30;;;;;;5101607;28;20193;-53
2021/04/07 02:57:42;;;;;;;24.45;22.08;;;32.70;90.20;;;;;;5100408;28;20258;-52
2021/04/07 03:00:13;;;;;;;19.92;18.02;;;32.70;89.70;;;;;;5100414;28;20200;-51
2021/04/07 03:02:43;;;;;;;21.48;19.20;;;32.80;90.10;;;;;;5101441;28;20196;-54
2021/04/07 03:05:15;;;;;;;21.50;19.40;;;32.90;90.00;;;;;;5102829;28;20867;-54
2021/04/07 03:07:45;;;;;;;22.48;20.25;;;33.00;88.60;;;;;;5096695;28;20184;-54
2021/04/07 03:10:17;;;;;;;24.02;21.50;;;33.00;88.10;;;;;;5101867;28;20187;-53
2021/04/07 03:12:47;;;;;;;22.92;20.70;;;33.10;88.00;;;;;;5106255;28;20279;-53
2021/04/07 03:15:17;;;;;;;23.60;21.13;;;33.10;87.90;;;;;;5063498;28;20212;-52
2021/04/07 03:17:48;;;;;;;20.73;18.55;;;33.10;87.20;;;;;;5065865;28;20201;-52
2021/04/07 03:20:18;;;;;;;23.10;21.00;;;33.20;86.70;;;;;;5027720;28;20313;-52
2021/04/07 03:22:51;;;;;;;21.63;19.58;;;33.20;85.30;;;;;;5027839;28;20293;-52
2021/04/07 03:25:23;;;;;;;27.83;25.13;;;33.20;84.30;;;;;;5028061;28;20210;-53
2021/04/07 03:27:53;;;;;;;26.30;23.60;;;33.20;84.40;;;;;;5040862;28;20386;-50
2021/04/07 03:30:24;;;;;;;26.77;24.02;;;33.20;84.90;;;;;;5034234;28;20234;-52
2021/04/07 03:32:54;;;;;;;24.17;21.98;;;33.20;84.50;;;;;;5043698;28;20202;-52
2021/04/07 03:35:25;;;;;;;24.50;22.27;;;33.30;85.10;;;;;;5042450;28;20203;-50
2021/04/07 03:37:55;;;;;;;26.88;24.00;;;33.30;85.40;;;;;;5027992;28;20291;-51
2021/04/07 03:40:27;;;;;;;25.45;22.98;;;33.30;85.00;;;;;;5026977;28;20304;-50
2021/04/07 03:42:57;;;;;;;25.02;22.65;;;33.30;85.10;;;;;;5036835;28;20772;-52
2021/04/07 03:45:28;;;;;;;24.92;22.63;;;33.40;85.50;;;;;;5050551;28;20300;-54
2021/04/07 03:47:58;;;;;;;25.65;23.45;;;33.30;85.00;;;;;;5080845;28;20654;-51
2021/04/07 03:50:29;;;;;;;25.33;22.88;;;33.40;84.50;;;;;;5061319;28;20832;-54
2021/04/07 03:52:59;;;;;;;24.33;22.10;;;33.40;84.70;;;;;;5108952;28;20625;-54
2021/04/07 03:55:31;;;;;;;28.20;25.88;;;33.40;85.60;;;;;;5109050;28;20200;-51
2021/04/07 03:58:01;;;;;;;29.08;26.38;;;33.40;84.80;;;;;;5108109;28;20231;-51
2021/04/07 04:00:31;;;;;;;27.27;24.60;;;33.50;85.00;;;;;;5108238;28;20614;-49
2021/04/07 04:03:04;;;;;;;28.08;25.50;;;33.50;85.20;;;;;;5110724;28;20227;-53
2021/04/07 04:05:34;;;;;;;28.15;25.73;;;33.60;85.00;;;;;;5112270;28;20192;-52
2021/04/07 04:08:05;;;;;;;30.27;27.45;;;33.60;84.60;;;;;;5112368;28;20192;-50
2021/04/07 04:10:37;;;;;;;29.60;26.85;;;33.70;84.40;;;;;;5111715;28;20568;-49
2021/04/07 04:13:07;;;;;;;29.83;27.25;;;33.80;83.80;;;;;;5112384;28;20662;-49
2021/04/07 04:15:38;;;;;;;35.92;32.63;;;33.80;82.90;;;;;;5112204;28;20241;-54
2021/04/07 04:18:09;;;;;;;31.63;28.95;;;33.90;82.70;;;;;;5112206;28;20200;-51
2021/04/07 04:20:39;;;;;;;31.48;28.73;;;34.00;81.70;;;;;;5111458;28;20307;-49
2021/04/07 04:23:13;;;;;;;30.30;27.70;;;34.00;80.90;;;;;;5111960;28;20279;-51
2021/04/07 04:25:44;;;;;;;28.85;26.25;;;34.10;81.00;;;;;;5111927;28;20203;-49
2021/04/07 04:28:15;;;;;;;29.85;27.15;;;34.10;80.60;;;;;;5111864;28;20235;-53
2021/04/07 04:30:45;;;;;;;28.70;26.17;;;34.20;80.50;;;;;;5111159;28;20279;-54
2021/04/07 04:33:15;;;;;;;28.98;26.55;;;34.30;79.90;;;;;;5111491;28;20261;-51
2021/04/07 04:35:46;;;;;;;32.17;29.13;;;34.30;78.90;;;;;;5111717;28;20192;-49
2021/04/07 04:38:19;;;;;;;25.35;22.95;;;34.30;77.90;;;;;;5111824;28;20196;-50
2021/04/07 04:40:50;;;;;;;27.50;24.98;;;34.20;78.50;;;;;;5111503;27;20212;-50
2021/04/07 04:43:20;;;;;;;31.33;28.50;;;34.20;78.50;;;;;;5110939;28;20267;-49
2021/04/07 04:45:51;;;;;;;34.35;31.15;;;34.20;78.10;;;;;;5111641;28;20192;-50
2021/04/07 04:48:25;;;;;;;27.63;25.13;;;34.20;77.50;;;;;;5111703;28;20216;-51
2021/04/07 04:50:55;;;;;;;29.00;26.40;;;34.10;78.40;;;;;;5111509;28;20192;-50
2021/04/07 04:53:25;;;;;;;26.08;23.85;;;34.00;78.10;;;;;;5110450;28;20251;-51
2021/04/07 04:55:57;;;;;;;29.52;26.77;;;34.00;78.30;;;;;;5111150;28;20628;-52
2021/04/07 04:58:28;;;;;;;26.27;23.92;;;33.90;77.90;;;;;;5111417;28;20200;-51
2021/04/07 05:01:02;;;;;;;17.27;15.70;;;33.80;78.20;;;;;;5110911;28;20804;-49
2021/04/07 05:03:33;;;;;;;17.83;13.35;;;33.80;76.20;;;;;;5110411;28;20283;-49
2021/04/07 05:06:03;;;;;;;11.93;10.82;;;33.60;76.10;;;;;;5110904;28;20243;-51
2021/04/07 05:08:33;;;;;;;11.27;10.13;;;33.40;75.60;;;;;;5111301;28;20283;-51
2021/04/07 05:11:06;;;;;;;9.48;8.55;;;33.20;74.60;;;;;;5111337;28;20220;-51
2021/04/07 05:13:37;;;;;;;10.65;9.68;;;33.00;74.40;;;;;;5110626;28;20240;-53
2021/04/07 05:16:07;;;;;;;9.80;9.02;;;32.70;73.80;;;;;;5110539;28;20219;-50
2021/04/07 05:18:38;;;;;;;12.10;11.10;;;32.50;75.00;;;;;;5110929;28;20233;-52
2021/04/07 05:21:09;;;;;;;11.68;10.68;;;32.30;76.00;;;;;;5111045;28;20224;-50
2021/04/07 05:23:39;;;;;;;12.18;10.98;;;32.10;76.60;;;;;;5110857;28;20677;-49
2021/04/07 05:26:10;;;;;;;12.45;10.75;;;31.90;77.10;;;;;;5110398;28;20200;-50
2021/04/07 05:28:41;;;;;;;11.43;10.52;;;31.80;77.10;;;;;;5110506;28;20207;-49
2021/04/07 05:31:11;;;;;;;11.80;10.70;;;31.70;77.40;;;;;;5111207;28;20196;-53
2021/04/07 05:33:42;;;;;;;11.90;10.80;;;31.60;77.50;;;;;;5110678;28;20814;-51
2021/04/07 05:36:13;;;;;;;10.80;9.82;;;31.50;77.80;;;;;;5110995;28;20683;-53
2021/04/07 05:38:44;;;;;;;10.43;9.40;;;31.30;78.50;;;;;;5109018;28;20651;-51
2021/04/07 05:41:17;;;;;;;9.05;8.25;;;31.20;79.20;;;;;;5110977;28;20200;-54
2021/04/07 05:43:51;;;;;;;8.00;7.30;;;31.20;79.80;;;;;;5110264;28;20645;-51
2021/04/07 05:46:22;;;;;;;6.03;5.53;;;31.00;79.80;;;;;;5111372;28;20629;-53
2021/04/07 05:48:52;;;;;;;6.65;6.07;;;31.00;79.80;;;;;;5109674;28;20204;-51
2021/04/07 05:51:22;;;;;;;5.88;5.28;;;30.90;80.10;;;;;;5096582;28;20283;-52
2021/04/07 05:53:52;;;;;;;6.93;6.20;;;30.70;80.20;;;;;;5110266;28;20690;-52
2021/04/07 05:56:28;;;;;;;8.50;7.72;;;30.60;80.40;;;;;;5110640;28;20319;-50
2021/04/07 05:58:58;;;;;;;11.93;10.93;;;30.60;80.10;;;;;;5112766;28;20271;-51
2021/04/07 06:01:28;;;;;;;9.60;8.80;;;30.50;79.70;;;;;;5116271;28;20216;-53
2021/04/07 06:03:58;;;;;;;9.85;8.95;;;30.40;80.00;;;;;;5116523;28;20240;-55
2021/04/07 06:06:29;;;;;;;9.70;8.90;;;30.30;80.10;;;;;;5116812;28;20202;-53
2021/04/07 06:09:00;;;;;;;9.60;8.77;;;30.30;80.60;;;;;;5116346;28;20307;-53
2021/04/07 06:14:07;;;;;;;8.95;8.15;;;30.20;81.50;;;;;;5109140;28;20246;-55
2021/04/07 06:16:39;;;;;;;8.82;8.13;;;30.20;81.60;;;;;;5113657;28;20211;-55
2021/04/07 06:19:09;;;;;;;10.40;9.50;;;30.10;82.30;;;;;;5113956;28;20208;-56
2021/04/07 06:21:40;;;;;;;11.85;10.65;;;30.10;81.80;;;;;;5115032;28;20192;-55
2021/04/07 06:24:10;;;;;;;10.00;9.10;;;30.10;81.40;;;;;;5114752;28;20615;-54
2021/04/07 06:26:41;;;;;;;9.60;8.80;;;30.00;81.50;;;;;;5113986;28;20491;-53
2021/04/07 06:29:12;;;;;;;9.80;8.80;;;30.00;81.60;;;;;;5115041;28;20211;-53
2021/04/07 06:31:43;;;;;;;9.63;8.77;;;29.90;81.60;;;;;;5114506;28;20245;-54
2021/04/07 06:34:13;;;;;;;8.18;7.57;;;29.90;81.70;;;;;;5114672;28;20227;-51
2021/04/07 06:36:43;;;;;;;9.55;8.75;;;29.90;82.10;;;;;;5113909;28;20307;-52
2021/04/07 06:39:13;;;;;;;9.35;8.50;;;29.80;83.10;;;;;;5114603;28;20745;-55
2021/04/07 06:41:43;;;;;;;8.40;7.70;;;29.80;84.10;;;;;;5114665;28;20302;-54
2021/04/07 06:44:17;;;;;;;9.73;8.93;;;29.80;84.70;;;;;;5115570;28;20203;-54
2021/04/07 06:46:47;;;;;;;9.27;8.30;;;29.80;85.90;;;;;;5051451;28;20292;-54
2021/04/07 06:49:17;;;;;;;11.00;10.00;;;29.80;85.60;;;;;;5051938;28;20677;-53
2021/04/07 06:51:48;;;;;;;10.13;9.20;;;29.90;85.60;;;;;;4993072;28;20247;-53
2021/04/07 06:54:19;;;;;;;11.45;10.52;;;29.90;85.80;;;;;;4992282;28;20216;-53
2021/04/07 06:56:51;;;;;;;9.32;8.52;;;30.00;86.10;;;;;;4990018;28;20219;-54
2021/04/07 06:59:22;;;;;;;8.60;7.93;;;30.00;86.10;;;;;;4986862;28;20399;-53
2021/04/07 07:01:52;;;;;;;9.27;8.57;;;30.10;86.50;;;;;;4990992;28;20216;-54
2021/04/07 07:04:23;;;;;;;10.27;9.38;;;30.10;86.10;;;;;;4991841;28;20206;-52
2021/04/07 07:06:55;;;;;;;10.63;9.75;;;30.10;86.10;;;;;;4991796;28;20211;-56
2021/04/07 07:09:25;;;;;;;11.40;10.40;;;30.20;85.90;;;;;;4991473;28;20208;-54
2021/04/07 07:11:55;;;;;;;12.13;11.13;;;30.30;85.80;;;;;;4985159;28;20229;-55
2021/04/07 07:14:27;;;;;;;11.32;10.32;;;30.30;85.70;;;;;;4972934;28;20596;-53
2021/04/07 07:16:57;;;;;;;12.38;11.38;;;30.40;85.80;;;;;;4981363;28;20209;-51
2021/04/07 07:19:29;;;;;;;13.20;12.05;;;30.50;86.00;;;;;;5031314;28;20246;-53
2021/04/07 07:22:00;;;;;;;12.52;11.43;;;30.50;86.40;;;;;;5041493;28;20223;-52
2021/04/07 07:24:34;;;;;;;11.77;10.80;;;30.60;86.60;;;;;;5094894;28;20244;-51
2021/04/07 07:27:06;;;;;;;11.88;10.95;;;30.60;86.90;;;;;;5094884;28;20197;-53
2021/04/07 07:29:38;;;;;;;11.48;10.57;;;30.70;87.00;;;;;;5095318;28;20246;-53
2021/04/07 07:32:09;;;;;;;12.70;11.60;;;30.80;87.00;;;;;;5094522;28;20216;-50
2021/04/07 07:34:39;;;;;;;13.63;12.43;;;30.90;87.10;;;;;;5095199;28;20663;-54
2021/04/07 07:37:10;;;;;;;12.20;11.13;;;31.00;86.30;;;;;;5097419;28;20197;-52
2021/04/07 07:39:40;;;;;;;12.43;11.43;;;31.10;86.00;;;;;;5036597;28;20222;-50
2021/04/07 07:42:12;;;;;;;11.57;10.68;;;31.10;86.00;;;;;;5035224;28;20717;-52
2021/04/07 07:44:43;;;;;;;12.68;11.60;;;31.20;86.10;;;;;;5034573;28;20309;-52
2021/04/07 07:47:19;;;;;;;13.07;12.07;;;31.30;85.80;;;;;;5037472;28;20211;-53
2021/04/07 07:49:56;;;;;;;11.50;10.50;;;31.40;85.60;;;;;;5037176;28;20597;-53
2021/04/07 07:52:31;;;;;;;10.80;9.90;;;31.50;85.60;;;;;;5036283;28;20199;-55
2021/04/07 07:55:12;;;;;;;11.65;10.73;;;31.50;85.70;;;;;;5037244;28;20257;-55
2021/04/07 07:57:53;;;;;;;10.82;9.98;;;31.70;85.60;;;;;;5037993;28;20207;-53
2021/04/07 08:00:27;;;;;;;10.82;9.85;;;31.70;84.60;;;;;;5036744;28;20276;-51
2021/04/07 08:03:06;;;;;;;11.30;10.40;;;31.80;83.40;;;;;;5037223;28;20207;-53
2021/04/07 08:05:36;;;;;;;10.82;9.93;;;31.90;83.00;;;;;;4998611;28;20216;-53
2021/04/07 08:08:07;;;;;;;10.38;9.48;;;31.90;83.80;;;;;;4958385;29;20221;-53
2021/04/07 08:10:41;;;;;;;10.60;9.75;;;32.00;83.00;;;;;;4977929;28;20227;-54
2021/04/07 08:13:11;;;;;;;10.85;9.95;;;32.00;83.20;;;;;;4997194;28;20343;-52
2021/04/07 08:15:43;;;;;;;10.52;9.77;;;32.10;83.40;;;;;;4997558;28;20801;-54
2021/04/07 08:18:13;;;;;;;10.38;9.13;;;32.10;83.50;;;;;;4996820;28;21046;-55
2021/04/07 08:20:44;;;;;;;11.50;10.50;;;32.20;83.50;;;;;;4972565;28;20229;-54
2021/04/07 08:23:14;;;;;;;11.95;10.98;;;32.20;83.50;;;;;;4959705;28;20210;-54
2021/04/07 08:25:44;;;;;;;11.60;10.60;;;32.20;83.10;;;;;;4916583;29;20195;-53
2021/04/07 08:28:15;;;;;;;10.73;9.90;;;32.30;83.00;;;;;;4927803;29;20223;-52
2021/04/07 08:30:46;;;;;;;12.30;11.27;;;32.30;82.90;;;;;;4882327;29;20208;-54
2021/04/07 08:33:19;;;;;;;10.65;9.75;;;32.30;82.60;;;;;;4882455;29;20204;-54
2021/04/07 08:35:51;;;;;;;11.57;10.57;;;32.40;82.80;;;;;;4891228;29;20203;-54
2021/04/07 08:38:31;;;;;;;11.18;10.27;;;32.40;82.90;;;;;;4881950;29;20248;-55
2021/04/07 08:41:11;;;;;;;10.52;9.73;;;32.40;82.80;;;;;;4882354;29;20799;-49
2021/04/07 08:43:42;;;;;;;11.68;10.75;;;32.50;82.90;;;;;;4882945;29;20219;-54
2021/04/07 08:46:14;;;;;;;11.52;10.63;;;32.50;82.90;;;;;;4870885;29;20279;-53
2021/04/07 08:48:45;;;;;;;11.73;10.80;;;32.50;82.80;;;;;;4881312;29;20256;-53
2021/04/07 08:51:20;;;;;;;11.70;10.70;;;32.50;82.60;;;;;;4893169;29;20210;-52
2021/04/07 08:53:51;;;;;;;12.60;11.50;;;32.60;82.50;;;;;;4902775;29;20310;-50
2021/04/07 08:56:26;;;;;;;12.15;11.00;;;32.60;82.50;;;;;;4971729;28;20218;-55
2021/04/07 08:58:56;;;;;;;11.18;10.27;;;32.60;82.30;;;;;;5024055;28;20206;-53
2021/04/07 09:01:34;;;;;;;11.60;10.60;;;32.60;82.40;;;;;;5036514;28;20776;-55
2021/04/07 09:04:09;;;;;;;12.25;11.25;;;32.70;82.60;;;;;;5034968;28;20217;-51
2021/04/07 09:06:39;;;;;;;12.05;11.05;;;32.80;82.50;;;;;;5035833;28;20203;-53
2021/04/07 09:09:09;;;;;;;13.77;12.57;;;32.80;82.30;;;;;;5061869;28;20438;-51
2021/04/07 09:11:42;;;;;;;13.27;12.18;;;32.80;82.10;;;;;;5092628;28;20589;-51
2021/04/07 09:14:15;;;;;;;14.50;13.27;;;32.80;82.10;;;;;;5096914;28;20193;-52
2021/04/07 09:16:46;;;;;;;12.60;11.60;;;32.80;81.40;;;;;;5097686;28;20196;-55
2021/04/07 09:19:19;;;;;;;12.98;11.98;;;32.80;81.30;;;;;;5097369;28;20196;-54
2021/04/07 09:22:00;;;;;;;12.88;11.88;;;32.80;81.30;;;;;;5097412;28;20259;-53
2021/04/07 09:24:42;;;;;;;13.20;12.10;;;32.90;81.10;;;;;;5097220;28;21207;-51
2021/04/07 09:27:21;;;;;;;13.18;12.13;;;32.90;81.00;;;;;;5085181;28;20200;-50
2021/04/07 09:29:51;;;;;;;13.25;12.15;;;32.90;81.10;;;;;;5097980;28;20193;-50
2021/04/07 09:32:23;;;;;;;13.60;12.40;;;33.00;80.80;;;;;;5097487;28;20200;-51
2021/04/07 09:34:53;;;;;;;14.02;12.75;;;33.00;80.40;;;;;;5095591;28;20201;-50
2021/04/07 09:37:24;;;;;;;13.05;11.98;;;33.00;80.10;;;;;;5097422;28;20201;-54
2021/04/07 09:39:54;;;;;;;13.70;12.50;;;33.00;81.10;;;;;;5097716;28;20266;-49
2021/04/07 09:42:24;;;;;;;13.30;12.10;;;33.00;80.20;;;;;;5097763;28;20201;-52
2021/04/07 09:44:54;;;;;;;13.75;12.55;;;33.10;80.60;;;;;;4975310;28;20200;-50
2021/04/07 09:47:31;;;;;;;14.63;13.40;;;33.20;80.40;;;;;;4975267;28;20221;-52
2021/04/07 09:50:09;;;;;;;14.25;13.13;;;33.20;79.70;;;;;;4975824;28;20197;-54
2021/04/07 09:52:42;;;;;;;13.90;12.80;;;33.30;79.30;;;;;;4975562;28;20315;-51
2021/04/07 09:55:21;;;;;;;14.45;13.35;;;33.40;79.60;;;;;;4975854;28;20205;-52
2021/04/07 09:58:00;;;;;;;15.23;13.80;;;33.50;79.60;;;;;;4975541;28;20209;-53
2021/04/07 10:00:31;;;;;;;15.02;13.73;;;33.60;80.10;;;;;;4974257;28;20229;-49
2021/04/07 10:03:03;;;;;;;15.52;14.27;;;33.70;79.20;;;;;;4976075;28;20580;-54
2021/04/07 10:05:34;;;;;;;16.02;14.52;;;33.80;78.20;;;;;;4974279;28;20225;-53
2021/04/07 10:08:14;;;;;;;15.32;13.98;;;33.90;77.90;;;;;;4974856;28;20231;-51
2021/04/07 10:10:44;;;;;;;14.43;13.18;;;34.00;76.70;;;;;;5096780;28;20598;-52
2021/04/07 10:13:14;;;;;;;14.38;13.18;;;34.10;77.40;;;;;;5097502;28;20343;-51
2021/04/07 10:15:45;;;;;;;14.00;12.82;;;34.10;77.30;;;;;;4974576;28;20234;-54
2021/04/07 10:18:17;;;;;;;13.95;12.73;;;34.10;77.30;;;;;;4974766;28;20216;-52
2021/04/07 10:20:48;;;;;;;15.10;13.82;;;34.20;77.00;;;;;;4976426;28;20272;-53
2021/04/07 10:23:21;;;;;;;14.57;13.27;;;34.20;76.60;;;;;;4975257;28;20749;-56
2021/04/07 10:25:55;;;;;;;15.18;13.85;;;34.20;76.50;;;;;;4917534;29;20318;-56
2021/04/07 10:28:25;;;;;;;14.43;13.13;;;34.30;76.80;;;;;;4916906;29;21557;-56
2021/04/07 10:30:57;;;;;;;15.15;13.90;;;34.30;77.00;;;;;;4917671;29;20239;-53
2021/04/07 10:33:31;;;;;;;14.88;13.50;;;34.40;77.00;;;;;;4917346;29;20250;-56
2021/04/07 10:36:01;;;;;;;14.55;13.27;;;34.50;76.40;;;;;;4917000;29;20211;-56
2021/04/07 10:38:31;;;;;;;14.25;13.00;;;34.60;76.40;;;;;;4917189;29;20670;-54
2021/04/07 10:41:03;;;;;;;15.80;14.50;;;34.70;76.10;;;;;;5009731;28;20248;-51
2021/04/07 10:43:34;;;;;;;17.40;15.75;;;34.70;75.90;;;;;;5032766;28;20228;-50
2021/04/07 10:46:04;;;;;;;16.77;15.32;;;34.80;74.50;;;;;;5032904;28;20209;-52
2021/04/07 10:48:39;;;;;;;16.45;14.85;;;34.80;73.50;;;;;;5029575;28;20237;-52
2021/04/07 10:51:10;;;;;;;15.38;14.07;;;34.80;72.80;;;;;;5020909;28;20214;-50
2021/04/07 10:53:42;;;;;;;14.70;13.35;;;34.70;72.70;;;;;;5033254;28;20213;-53
2021/04/07 10:56:17;;;;;;;14.25;13.02;;;34.70;73.00;;;;;;5048557;28;20599;-51
2021/04/07 10:58:52;;;;;;;15.10;13.68;;;34.60;73.40;;;;;;5093824;28;20628;-54
2021/04/07 11:01:29;;;;;;;13.77;12.68;;;34.60;73.90;;;;;;5096182;28;20224;-50
2021/04/07 11:04:14;;;;;;;13.93;12.77;;;34.50;74.00;;;;;;5096520;28;20221;-55
2021/04/07 11:06:44;;;;;;;13.73;12.63;;;34.40;73.80;;;;;;5096668;28;20204;-52
2021/04/07 11:09:15;;;;;;;13.32;12.18;;;34.30;73.90;;;;;;5095799;28;20242;-53
2021/04/07 11:11:45;;;;;;;14.40;13.10;;;34.30;74.00;;;;;;5097703;28;20220;-50
2021/04/07 11:14:16;;;;;;;14.23;12.82;;;34.20;74.10;;;;;;5100728;28;20193;-51
2021/04/07 11:16:46;;;;;;;17.50;15.90;;;34.10;74.30;;;;;;4977313;28;20251;-52
2021/04/07 11:19:17;;;;;;;18.25;16.50;;;34.00;74.60;;;;;;4978023;28;20216;-55
2021/04/07 11:21:50;;;;;;;21.70;19.02;;;33.90;74.90;;;;;;4977175;28;20315;-51
2021/04/07 11:24:20;;;;;;;18.10;16.42;;;33.80;75.00;;;;;;4977584;28;20223;-50
2021/04/07 11:26:53;;;;;;;15.18;13.77;;;33.70;75.30;;;;;;4978013;28;20209;-50
2021/04/07 11:29:23;;;;;;;13.30;12.10;;;33.60;75.80;;;;;;4978253;28;20205;-49
2021/04/07 11:31:55;;;;;;;13.68;12.48;;;33.50;76.00;;;;;;4977057;28;20224;-52
2021/04/07 11:34:53;;;;;;;38.53;34.92;;;33.40;76.20;;;;;;4976483;28;20209;-50
2021/04/07 11:37:32;;;;;;;36.28;33.08;;;33.30;76.60;;;;;;4975793;28;20298;-52
2021/04/07 11:40:35;;;;;;;21.70;19.80;;;33.20;76.90;;;;;;4965375;28;20224;-54
2021/04/07 11:43:08;;;;;;;14.98;13.68;;;33.10;77.00;;;;;;4975598;28;20208;-51
2021/04/07 11:45:39;;;;;;;13.90;12.57;;;33.10;77.20;;;;;;4976220;28;20699;-52
2021/04/07 11:48:22;;;;;;;12.93;11.73;;;32.90;77.40;;;;;;5066941;28;20287;-51
2021/04/07 11:50:54;;;;;;;12.90;11.40;;;32.90;77.80;;;;;;5097778;28;20235;-50
2021/04/07 11:53:24;;;;;;;13.38;12.13;;;32.80;78.00;;;;;;5098296;28;20197;-52
2021/04/07 11:55:54;;;;;;;12.80;11.50;;;32.60;78.00;;;;;;5097897;28;20207;-54
2021/04/07 11:58:24;;;;;;;12.02;10.98;;;32.60;78.30;;;;;;5097783;28;20210;-54
2021/04/07 12:00:55;;;;;;;12.88;11.70;;;32.50;78.40;;;;;;5088711;28;20209;-50
2021/04/07 12:03:25;;;;;;;14.63;13.25;;;32.50;78.70;;;;;;5099069;28;20768;-54
2021/04/07 12:05:56;;;;;;;14.63;13.15;;;32.40;78.80;;;;;;5098799;28;20634;-54
2021/04/07 12:08:27;;;;;;;13.85;12.75;;;32.40;79.10;;;;;;5098474;28;20697;-50
2021/04/07 12:11:00;;;;;;;13.38;12.27;;;32.30;79.40;;;;;;5099021;28;20263;-53
2021/04/07 12:13:30;;;;;;;14.30;12.70;;;32.20;79.60;;;;;;5099441;28;20311;-53
2021/04/07 12:16:00;;;;;;;16.33;14.82;;;32.20;79.70;;;;;;5098301;28;20212;-53
2021/04/07 12:18:30;;;;;;;15.02;13.63;;;32.20;80.10;;;;;;5098102;28;20213;-53
2021/04/07 12:21:01;;;;;;;15.52;13.98;;;32.10;80.30;;;;;;5097699;28;20270;-51
2021/04/07 12:23:32;;;;;;;14.02;12.63;;;32.10;80.40;;;;;;5098055;28;20215;-55
2021/04/07 12:26:02;;;;;;;12.50;11.40;;;32.00;80.30;;;;;;5098685;28;20201;-54
2021/04/07 12:28:34;;;;;;;12.07;10.77;;;32.00;80.40;;;;;;5098864;28;20204;-54
2021/04/07 12:31:04;;;;;;;12.88;11.75;;;32.00;80.50;;;;;;5098455;28;20193;-53
2021/04/07 12:33:35;;;;;;;12.63;11.32;;;31.90;80.60;;;;;;5099528;28;20201;-52
2021/04/07 12:36:08;;;;;;;13.43;12.32;;;31.90;80.90;;;;;;5098983;28;20671;-53
2021/04/07 12:38:39;;;;;;;14.27;12.98;;;31.90;81.30;;;;;;5098236;28;20201;-51
2021/04/07 12:41:12;;;;;;;14.95;13.43;;;31.80;81.20;;;;;;5095031;28;20259;-55
2021/04/07 12:43:43;;;;;;;13.93;12.65;;;31.80;81.60;;;;;;5096820;28;20193;-54
2021/04/07 12:46:13;;;;;;;12.73;11.65;;;31.70;81.80;;;;;;5097730;28;20209;-49
2021/04/07 12:48:47;;;;;;;13.38;12.07;;;31.70;82.00;;;;;;5098191;28;20676;-53
2021/04/07 12:51:19;;;;;;;14.32;12.93;;;31.70;82.40;;;;;;5097254;28;20224;-54
2021/04/07 12:53:49;;;;;;;15.93;12.27;;;31.60;82.60;;;;;;5096286;28;20216;-52